Weather at Brenham Municipal Airport

Public forecast

Using degrees Fahrenheit for public forecast. Weather courtesy of forecast.io.

Current aviation weather report (METAR) for Brenham Municipal Airport

2024/05/25 11:35 (retrieved 20 minutes ago)

K11R 251135Z AUTO 17004KT 5SM BR OVC018 27/25 A2980 RMK AO2 T02650251

Closest aviation forecast (TAF) to Brenham Municipal Airport

Closest forecast is Easterwood Field, 22.2 nm (41.1 km) N.

2024/05/25 06:22 (retrieved 6 hours ago)

TAF KCLL 250520Z 2506/2606 15010KT P6SM SCT020 FM250900 15007KT P6SM BKN015 FM251500 17010KT P6SM BKN025 FM251800 16014G22KT P6SM SCT035 FM260100 15013G20KT P6SM SCT250